Time;durP1;ratioP1;P1;durP2;ratioP2;P2;SDS_P1;SDS_P2;PMS_P1;PMS_P2;Temp;Humidity;BMP_temperature;BMP_pressure;BME280_temperature;BME280_humidity;BME280_pressure;Samples;Min_cycle;Max_cycle;Signal;HPM_P1;HPM_P2
2024/02/23 00:00:41;;;;;;;;;;;7.50;69.80;;;;;;5033751;27;87376;-44
2024/02/23 00:03:08;;;;;;;;;;;7.40;69.70;;;;;;5036660;28;86877;-44
2024/02/23 00:05:33;;;;;;;;;;;7.40;69.70;;;;;;5041618;27;88104;-44
2024/02/23 00:07:59;;;;;;;;;;;7.50;69.80;;;;;;5035148;27;87453;-44
2024/02/23 00:10:25;;;;;;;;;;;7.40;69.80;;;;;;5031597;28;86994;-44
2024/02/23 00:12:51;;;;;;;;;;;7.40;69.70;;;;;;5041628;28;87012;-45
2024/02/23 00:15:16;;;;;;;;;;;7.40;69.80;;;;;;5039440;27;87429;-44
2024/02/23 00:17:42;;;;;;;;;;;7.40;69.80;;;;;;5036469;27;87440;-44
2024/02/23 00:20:10;;;;;;;;;;;7.40;69.80;;;;;;5036008;28;88314;-44
2024/02/23 00:22:37;;;;;;;;;;;7.40;69.80;;;;;;5035798;27;87022;-44
2024/02/23 00:25:03;;;;;;;;;;;7.40;69.80;;;;;;5035466;28;87196;-44
2024/02/23 00:27:28;;;;;;;;;;;7.40;69.80;;;;;;5033033;28;88419;-44
2024/02/23 00:29:54;;;;;;;;;;;7.40;69.80;;;;;;5038388;28;87086;-44
2024/02/23 00:32:19;;;;;;;;;;;7.40;69.80;;;;;;5037251;28;86932;-44
2024/02/23 00:34:46;;;;;;;;;;;7.40;69.80;;;;;;5040667;28;87340;-44
2024/02/23 00:37:11;;;;;;;;;;;7.40;69.80;;;;;;5037147;27;86357;-44
2024/02/23 00:39:37;;;;;;;;;;;7.40;69.80;;;;;;5039798;28;87293;-44
2024/02/23 00:42:03;;;;;;;;;;;7.40;69.80;;;;;;5042963;27;88483;-44
2024/02/23 00:44:28;;;;;;;;;;;7.40;69.80;;;;;;5034127;28;88273;-44
2024/02/23 00:46:54;;;;;;;;;;;7.40;69.80;;;;;;5034333;27;87560;-44
2024/02/23 00:49:19;;;;;;;;;;;7.30;69.70;;;;;;5034039;27;87166;-44
2024/02/23 00:51:45;;;;;;;;;;;7.30;69.80;;;;;;5037030;27;88050;-44
2024/02/23 00:54:10;;;;;;;;;;;7.30;69.70;;;;;;5030477;28;86982;-44
2024/02/23 00:56:36;;;;;;;;;;;7.40;69.80;;;;;;5035979;28;86884;-44
2024/02/23 00:59:02;;;;;;;;;;;7.30;69.70;;;;;;5036608;27;86940;-44
2024/02/23 01:01:28;;;;;;;;;;;7.30;69.80;;;;;;5032603;28;87897;-44
2024/02/23 01:03:54;;;;;;;;;;;7.30;69.80;;;;;;5047952;28;86980;-45
2024/02/23 01:06:19;;;;;;;;;;;7.30;69.80;;;;;;5034709;28;87279;-44
2024/02/23 01:08:45;;;;;;;;;;;7.30;69.80;;;;;;5035024;28;88623;-44
2024/02/23 01:11:10;;;;;;;;;;;7.30;69.80;;;;;;5039542;28;88741;-44
2024/02/23 01:13:36;;;;;;;;;;;7.30;69.80;;;;;;5036491;28;87334;-44
2024/02/23 01:16:02;;;;;;;;;;;7.30;69.80;;;;;;5043593;28;86980;-44
2024/02/23 01:18:27;;;;;;;;;;;7.30;69.80;;;;;;5032220;27;86980;-44
2024/02/23 01:20:53;;;;;;;;;;;7.30;69.80;;;;;;5035883;28;88618;-44
2024/02/23 01:23:18;;;;;;;;;;;7.30;69.80;;;;;;5039431;27;87081;-44
2024/02/23 01:25:44;;;;;;;;;;;7.30;69.80;;;;;;5035773;28;86709;-44
2024/02/23 01:28:09;;;;;;;;;;;7.30;69.80;;;;;;5034511;28;87545;-44
2024/02/23 01:30:35;;;;;;;;;;;7.30;69.80;;;;;;5034577;27;87146;-45
2024/02/23 01:33:01;;;;;;;;;;;7.30;69.80;;;;;;5033416;28;88479;-44
2024/02/23 01:35:26;;;;;;;;;;;7.30;69.80;;;;;;5038239;27;86937;-44
2024/02/23 01:37:53;;;;;;;;;;;7.30;69.80;;;;;;5042765;28;87038;-44
2024/02/23 01:40:19;;;;;;;;;;;7.20;69.70;;;;;;5034007;28;87606;-45
2024/02/23 01:42:45;;;;;;;;;;;7.30;69.80;;;;;;5035718;28;87142;-44
2024/02/23 01:45:10;;;;;;;;;;;7.30;69.80;;;;;;5042767;28;86993;-44
2024/02/23 01:47:36;;;;;;;;;;;7.20;69.80;;;;;;5035114;28;87074;-44
2024/02/23 01:50:02;;;;;;;;;;;7.30;69.80;;;;;;5035165;28;86961;-44
2024/02/23 01:52:28;;;;;;;;;;;7.20;69.80;;;;;;5040898;28;87641;-44
2024/02/23 01:54:54;;;;;;;;;;;7.20;69.80;;;;;;5035920;27;87088;-44
2024/02/23 01:57:21;;;;;;;;;;;7.20;69.80;;;;;;5032467;28;87892;-44
2024/02/23 01:59:46;;;;;;;;;;;7.20;69.80;;;;;;5038199;28;88695;-44
2024/02/23 02:02:12;;;;;;;;;;;7.20;69.80;;;;;;5037877;27;86826;-44
2024/02/23 02:04:38;;;;;;;;;;;7.20;69.80;;;;;;5036107;27;87910;-44
2024/02/23 02:07:04;;;;;;;;;;;7.20;69.80;;;;;;5036228;27;88258;-44
2024/02/23 02:09:29;;;;;;;;;;;7.20;69.80;;;;;;5039402;27;87289;-45
2024/02/23 02:11:55;;;;;;;;;;;7.20;69.80;;;;;;5030287;28;87373;-44
2024/02/23 02:14:20;;;;;;;;;;;7.20;69.80;;;;;;5038276;28;86389;-44
2024/02/23 02:16:46;;;;;;;;;;;7.20;69.80;;;;;;5036747;27;86934;-44
2024/02/23 02:19:12;;;;;;;;;;;7.20;69.80;;;;;;5040743;27;87594;-44
2024/02/23 02:21:38;;;;;;;;;;;7.20;69.80;;;;;;5031322;27;87939;-44
2024/02/23 02:24:04;;;;;;;;;;;7.20;69.80;;;;;;5033677;27;89357;-44
2024/02/23 02:26:32;;;;;;;;;;;7.20;69.80;;;;;;5033900;27;87692;-44
2024/02/23 02:28:58;;;;;;;;;;;7.20;69.80;;;;;;5040351;27;87426;-44
2024/02/23 02:31:23;;;;;;;;;;;7.20;69.80;;;;;;5032977;27;86977;-44
2024/02/23 02:33:49;;;;;;;;;;;7.20;69.80;;;;;;5037004;27;86968;-44
2024/02/23 02:36:14;;;;;;;;;;;7.20;69.80;;;;;;5034269;28;87370;-44
2024/02/23 02:38:40;;;;;;;;;;;7.20;69.80;;;;;;5037994;27;86768;-44
2024/02/23 02:41:06;;;;;;;;;;;7.10;69.80;;;;;;5038620;27;87887;-45
2024/02/23 02:43:31;;;;;;;;;;;7.10;69.80;;;;;;5034889;28;86965;-45
2024/02/23 02:45:57;;;;;;;;;;;7.10;69.80;;;;;;5031114;28;88467;-44
2024/02/23 02:48:23;;;;;;;;;;;7.10;69.80;;;;;;5032044;27;87080;-44
2024/02/23 02:50:49;;;;;;;;;;;7.10;69.80;;;;;;5038358;27;87091;-44
2024/02/23 02:53:15;;;;;;;;;;;7.10;69.80;;;;;;5031488;27;87055;-44
2024/02/23 02:55:44;;;;;;;;;;;7.10;69.80;;;;;;5041741;27;87016;-45
2024/02/23 02:58:13;;;;;;;;;;;7.10;69.80;;;;;;5037433;27;90142;-44
2024/02/23 03:00:38;;;;;;;;;;;7.10;69.80;;;;;;5031829;28;87114;-44
2024/02/23 03:03:04;;;;;;;;;;;7.10;69.80;;;;;;5037672;27;86756;-44
2024/02/23 03:05:30;;;;;;;;;;;7.10;69.80;;;;;;5034408;27;88576;-44
2024/02/23 03:07:55;;;;;;;;;;;7.10;69.80;;;;;;5035556;28;87119;-44
2024/02/23 03:10:21;;;;;;;;;;;7.10;69.80;;;;;;5039602;28;87926;-45
2024/02/23 03:12:46;;;;;;;;;;;7.10;69.80;;;;;;5037728;27;87688;-44
2024/02/23 03:15:12;;;;;;;;;;;7.10;69.80;;;;;;5031258;28;87420;-44
2024/02/23 03:17:38;;;;;;;;;;;7.10;69.80;;;;;;5042450;27;88536;-44
2024/02/23 03:20:11;;;;;;;;;;;7.10;69.80;;;;;;5034860;27;87859;-44
2024/02/23 03:22:37;;;;;;;;;;;7.10;69.80;;;;;;5037644;27;88061;-44
2024/02/23 03:25:09;;;;;;;;;;;7.10;69.80;;;;;;5037457;28;88488;-44
2024/02/23 03:27:36;;;;;;;;;;;7.10;69.80;;;;;;5036747;27;86247;-44
2024/02/23 03:30:02;;;;;;;;;;;7.10;69.80;;;;;;5039189;27;88743;-44
2024/02/23 03:32:28;;;;;;;;;;;7.00;69.70;;;;;;5039372;27;87549;-44
2024/02/23 03:34:54;;;;;;;;;;;7.10;69.80;;;;;;5037852;27;89230;-44
2024/02/23 03:37:19;;;;;;;;;;;7.00;69.70;;;;;;5031174;27;87944;-44
2024/02/23 03:39:45;;;;;;;;;;;7.00;69.80;;;;;;5034034;27;87047;-44
2024/02/23 03:42:10;;;;;;;;;;;7.00;70.30;;;;;;5038650;27;87966;-44
2024/02/23 03:44:36;;;;;;;;;;;7.00;69.80;;;;;;5034037;28;88659;-44
2024/02/23 03:47:01;;;;;;;;;;;7.00;69.80;;;;;;5033977;27;86984;-44
2024/02/23 03:49:27;;;;;;;;;;;7.10;69.80;;;;;;5042041;27;86904;-45
2024/02/23 03:51:52;;;;;;;;;;;7.10;69.80;;;;;;5036412;27;86862;-44
2024/02/23 03:54:18;;;;;;;;;;;7.00;69.80;;;;;;5042481;27;87012;-45
2024/02/23 03:56:43;;;;;;;;;;;7.00;69.80;;;;;;5038472;27;88830;-44
2024/02/23 03:59:09;;;;;;;;;;;7.00;69.80;;;;;;5036299;27;87925;-44
2024/02/23 04:01:39;;;;;;;;;;;7.00;69.80;;;;;;5038169;27;87414;-45
2024/02/23 04:04:05;;;;;;;;;;;7.00;69.80;;;;;;5040416;28;89020;-44
2024/02/23 04:06:30;;;;;;;;;;;7.00;69.80;;;;;;5038131;28;87022;-44
2024/02/23 04:08:56;;;;;;;;;;;7.00;69.80;;;;;;5038668;28;86992;-44
2024/02/23 04:11:22;;;;;;;;;;;7.00;69.80;;;;;;5037447;27;88899;-44
2024/02/23 04:13:47;;;;;;;;;;;7.00;69.80;;;;;;5036114;27;86972;-44
2024/02/23 04:16:13;;;;;;;;;;;7.00;69.80;;;;;;5041950;27;87678;-44
2024/02/23 04:18:38;;;;;;;;;;;7.00;69.80;;;;;;5038724;28;87089;-44
2024/02/23 04:21:04;;;;;;;;;;;7.00;69.80;;;;;;5038104;27;87008;-44
2024/02/23 04:23:30;;;;;;;;;;;7.00;69.80;;;;;;5035605;28;89253;-44
2024/02/23 04:25:55;;;;;;;;;;;7.00;69.80;;;;;;5035735;28;86939;-44
2024/02/23 04:28:21;;;;;;;;;;;7.00;69.80;;;;;;5033443;27;86978;-45
2024/02/23 04:30:47;;;;;;;;;;;7.00;69.80;;;;;;5036392;28;87548;-44
2024/02/23 04:33:12;;;;;;;;;;;7.00;69.80;;;;;;5032137;28;87373;-44
2024/02/23 04:35:38;;;;;;;;;;;6.90;69.80;;;;;;5038804;27;87665;-44
2024/02/23 04:38:03;;;;;;;;;;;7.00;69.80;;;;;;5043661;28;86976;-44
2024/02/23 04:40:29;;;;;;;;;;;6.90;69.80;;;;;;5043995;28;86665;-44
2024/02/23 04:42:54;;;;;;;;;;;6.90;69.80;;;;;;5035207;28;87489;-44
2024/02/23 04:45:20;;;;;;;;;;;6.90;69.80;;;;;;5040795;27;87996;-44
2024/02/23 04:47:48;;;;;;;;;;;6.90;69.80;;;;;;5035591;28;87807;-44
2024/02/23 04:50:13;;;;;;;;;;;6.90;69.70;;;;;;5036917;27;87662;-44
2024/02/23 04:52:39;;;;;;;;;;;6.90;69.80;;;;;;5031040;27;87032;-44
2024/02/23 04:55:05;;;;;;;;;;;6.90;69.80;;;;;;5035869;27;87818;-44
2024/02/23 04:57:31;;;;;;;;;;;6.90;69.80;;;;;;5037111;28;87439;-44
2024/02/23 04:59:56;;;;;;;;;;;6.90;69.80;;;;;;5042441;27;86965;-44
2024/02/23 05:02:22;;;;;;;;;;;6.90;69.80;;;;;;5038529;28;87277;-44
2024/02/23 05:04:47;;;;;;;;;;;6.90;69.80;;;;;;5038885;27;86750;-44
2024/02/23 05:07:13;;;;;;;;;;;6.90;69.80;;;;;;5029613;28;87527;-45
2024/02/23 05:09:40;;;;;;;;;;;6.90;70.40;;;;;;5034912;27;87550;-44
2024/02/23 05:12:07;;;;;;;;;;;6.90;69.80;;;;;;5035878;28;88084;-44
2024/02/23 05:14:32;;;;;;;;;;;6.90;69.80;;;;;;5038085;28;87665;-44
2024/02/23 05:16:58;;;;;;;;;;;6.90;69.80;;;;;;5036877;28;87601;-44
2024/02/23 05:19:23;;;;;;;;;;;6.90;69.80;;;;;;5038392;27;87130;-44
2024/02/23 05:21:49;;;;;;;;;;;6.90;69.80;;;;;;5041525;27;87839;-44
2024/02/23 05:24:15;;;;;;;;;;;6.90;70.40;;;;;;5036410;28;87845;-44
2024/02/23 05:26:40;;;;;;;;;;;6.90;69.80;;;;;;5035882;27;88079;-44
2024/02/23 05:29:06;;;;;;;;;;;6.80;69.70;;;;;;5038614;28;88252;-44
2024/02/23 05:31:49;;;;;;;;;;;6.90;69.80;;;;;;5037369;28;87099;-44
2024/02/23 05:34:14;;;;;;;;;;;6.90;69.80;;;;;;5037454;27;88119;-44
2024/02/23 05:36:40;;;;;;;;;;;6.80;69.80;;;;;;5034204;28;89371;-44
2024/02/23 05:39:07;;;;;;;;;;;6.80;69.80;;;;;;5034797;27;87016;-44
2024/02/23 05:41:33;;;;;;;;;;;6.80;69.70;;;;;;5041080;28;87081;-44
2024/02/23 05:43:59;;;;;;;;;;;6.90;69.80;;;;;;5035688;27;88010;-45
2024/02/23 05:46:24;;;;;;;;;;;6.80;69.70;;;;;;5038054;27;89649;-45
2024/02/23 05:48:50;;;;;;;;;;;6.80;69.80;;;;;;5035741;27;87577;-44
2024/02/23 05:51:15;;;;;;;;;;;6.80;69.80;;;;;;5038490;28;87099;-44
2024/02/23 05:53:41;;;;;;;;;;;6.80;69.80;;;;;;5036001;27;87052;-44
2024/02/23 05:56:06;;;;;;;;;;;6.80;69.70;;;;;;5037165;28;86971;-44
2024/02/23 05:58:32;;;;;;;;;;;6.80;69.80;;;;;;5034953;27;87166;-44
2024/02/23 06:00:57;;;;;;;;;;;6.80;69.80;;;;;;5034453;28;87937;-44
2024/02/23 06:03:23;;;;;;;;;;;6.80;69.80;;;;;;5038419;27;89328;-44
2024/02/23 06:05:48;;;;;;;;;;;6.80;69.80;;;;;;5031183;27;88829;-44
2024/02/23 06:08:14;;;;;;;;;;;6.80;69.80;;;;;;5039327;27;87328;-44
2024/02/23 06:10:39;;;;;;;;;;;6.80;69.90;;;;;;5037562;27;87046;-44
2024/02/23 06:13:05;;;;;;;;;;;6.80;70.10;;;;;;5039268;27;87041;-44
2024/02/23 06:15:31;;;;;;;;;;;6.90;70.60;;;;;;5031653;27;87547;-44
2024/02/23 06:17:56;;;;;;;;;;;6.90;71.30;;;;;;5038457;27;86250;-44
2024/02/23 06:20:22;;;;;;;;;;;7.00;72.20;;;;;;5031619;28;86886;-44
2024/02/23 06:22:47;;;;;;;;;;;7.10;73.20;;;;;;5034927;27;88520;-44
2024/02/23 06:25:13;;;;;;;;;;;7.10;74.20;;;;;;5041506;28;88106;-44
2024/02/23 06:27:38;;;;;;;;;;;7.20;75.30;;;;;;5035962;28;87676;-44
2024/02/23 06:30:04;;;;;;;;;;;7.30;76.40;;;;;;5037991;28;87659;-44
2024/02/23 06:32:30;;;;;;;;;;;7.40;77.40;;;;;;5034776;28;87018;-44
2024/02/23 06:34:56;;;;;;;;;;;7.50;78.40;;;;;;5036060;27;87449;-44
2024/02/23 06:37:21;;;;;;;;;;;7.60;79.30;;;;;;5039375;27;87014;-44
2024/02/23 06:39:51;;;;;;;;;;;7.70;80.10;;;;;;5039380;28;87088;-44
2024/02/23 06:42:16;;;;;;;;;;;7.90;81.00;;;;;;5031982;28;87864;-44
2024/02/23 06:44:42;;;;;;;;;;;8.00;81.70;;;;;;5035244;28;87142;-44
2024/02/23 06:47:07;;;;;;;;;;;8.10;82.40;;;;;;5040182;27;86898;-45
2024/02/23 06:49:33;;;;;;;;;;;8.20;83.10;;;;;;5034817;28;87951;-44
2024/02/23 06:51:58;;;;;;;;;;;8.30;83.70;;;;;;5035664;27;87920;-46
2024/02/23 06:54:24;;;;;;;;;;;8.40;84.30;;;;;;5034777;27;87424;-45
2024/02/23 06:56:50;;;;;;;;;;;8.50;84.80;;;;;;5034135;28;87106;-44
2024/02/23 06:59:15;;;;;;;;;;;8.70;85.30;;;;;;5035097;28;87706;-45
2024/02/23 07:01:47;;;;;;;;;;;8.80;85.80;;;;;;5027813;28;88844;-44
2024/02/23 07:04:13;;;;;;;;;;;8.90;86.10;;;;;;5035206;28;86990;-45
2024/02/23 07:08:02;;;;;;;;;;;9.10;84.60;;;;;;5013457;28;80342;-38
2024/02/23 07:10:27;;;;;;;;;;;9.20;84.10;;;;;;5014237;28;80491;-38
2024/02/23 07:12:54;;;;;;;;;;;9.30;83.30;;;;;;5014943;28;80275;-38
2024/02/23 07:15:20;;;;;;;;;;;9.40;82.50;;;;;;5016137;28;80898;-38
2024/02/23 07:17:45;;;;;;;;;;;9.40;81.90;;;;;;5012986;28;81187;-38
2024/02/23 07:20:11;;;;;;;;;;;9.50;81.40;;;;;;5013542;28;80684;-38
2024/02/23 07:22:37;;;;;;;;;;;9.60;80.90;;;;;;5016416;28;81839;-38
2024/02/23 07:25:03;;;;;;;;;;;9.60;80.50;;;;;;5019049;28;80617;-38
2024/02/23 07:27:29;;;;;;;;;;;9.60;80.70;;;;;;5013812;28;81259;-38
2024/02/23 07:29:55;;;;;;;;;;;9.70;79.80;;;;;;5012195;28;80304;-38
2024/02/23 07:32:20;;;;;;;;;;;9.70;79.40;;;;;;5012004;28;80406;-38
2024/02/23 07:34:46;;;;;;;;;;;9.70;79.10;;;;;;5016102;28;80741;-45
2024/02/23 07:37:11;;;;;;;;;;;9.70;78.70;;;;;;5019665;28;80272;-45
2024/02/23 07:39:37;;;;;;;;;;;9.80;78.50;;;;;;5019800;28;80756;-46
2024/02/23 07:42:03;;;;;;;;;;;9.70;78.10;;;;;;5015351;28;81699;-45
2024/02/23 07:44:29;;;;;;;;;;;9.80;77.90;;;;;;5012612;28;80252;-45
2024/02/23 07:46:55;;;;;;;;;;;9.80;77.60;;;;;;5013964;28;81194;-45
2024/02/23 07:49:22;;;;;;;;;;;9.80;77.30;;;;;;5018151;28;81793;-46
2024/02/23 07:51:47;;;;;;;;;;;9.80;77.10;;;;;;5007912;28;81401;-45
2024/02/23 07:54:13;;;;;;;;;;;9.80;76.80;;;;;;5016184;28;80521;-45
2024/02/23 07:56:38;;;;;;;;;;;9.80;76.50;;;;;;5015909;28;80266;-45
2024/02/23 07:59:04;;;;;;;;;;;9.80;76.40;;;;;;5016576;28;80972;-45
2024/02/23 08:01:30;;;;;;;;;;;9.80;76.10;;;;;;5022624;28;80592;-45
2024/02/23 08:03:55;;;;;;;;;;;9.80;75.90;;;;;;5013188;28;80217;-45
2024/02/23 08:06:21;;;;;;;;;;;9.80;75.70;;;;;;5012623;28;81247;-45
2024/02/23 08:08:47;;;;;;;;;;;9.80;75.50;;;;;;5016268;28;80816;-45
2024/02/23 08:11:13;;;;;;;;;;;9.80;75.30;;;;;;5015995;28;80387;-45
2024/02/23 08:13:39;;;;;;;;;;;9.80;75.10;;;;;;5015841;28;80982;-45
2024/02/23 08:16:05;;;;;;;;;;;9.70;74.90;;;;;;5013515;28;81039;-45
2024/02/23 08:18:31;;;;;;;;;;;9.70;74.80;;;;;;5004291;28;81276;-45
2024/02/23 08:20:57;;;;;;;;;;;9.70;74.70;;;;;;5002791;28;81657;-46
2024/02/23 08:23:23;;;;;;;;;;;9.70;74.50;;;;;;5000621;28;80818;-45
2024/02/23 08:25:49;;;;;;;;;;;9.70;74.40;;;;;;5008569;28;80112;-45
2024/02/23 08:28:14;;;;;;;;;;;9.70;74.20;;;;;;4998066;28;80852;-45
2024/02/23 08:30:40;;;;;;;;;;;9.70;74.20;;;;;;4999525;28;80317;-45
2024/02/23 08:33:05;;;;;;;;;;;9.70;74.00;;;;;;5002603;28;82279;-45
2024/02/23 08:35:32;;;;;;;;;;;9.70;73.90;;;;;;4999301;28;80909;-43
2024/02/23 08:37:57;;;;;;;;;;;9.70;73.80;;;;;;5000930;28;81170;-43
2024/02/23 08:40:23;;;;;;;;;;;9.70;73.70;;;;;;5001674;28;80681;-43
2024/02/23 08:42:49;;;;;;;;;;;9.70;73.60;;;;;;5002202;28;81947;-43
2024/02/23 08:45:15;;;;;;;;;;;9.70;73.50;;;;;;5001560;28;81158;-44
2024/02/23 08:47:41;;;;;;;;;;;9.70;73.40;;;;;;5001193;28;81663;-43
2024/02/23 08:50:07;;;;;;;;;;;9.60;73.20;;;;;;5002308;28;80588;-43
2024/02/23 08:52:32;;;;;;;;;;;9.60;73.20;;;;;;5000733;28;81455;-43
2024/02/23 08:55:00;;;;;;;;;;;9.70;73.10;;;;;;5001579;28;80739;-43
2024/02/23 08:57:27;;;;;;;;;;;9.60;73.00;;;;;;5003716;28;80979;-43
2024/02/23 08:59:53;;;;;;;;;;;9.60;72.90;;;;;;4998599;28;81712;-43
2024/02/23 09:02:19;;;;;;;;;;;9.60;72.80;;;;;;5003519;28;81384;-43
2024/02/23 09:04:45;;;;;;;;;;;9.60;72.70;;;;;;4998921;28;81260;-43
2024/02/23 09:07:11;;;;;;;;;;;9.60;72.70;;;;;;5000706;28;81073;-43
2024/02/23 09:09:37;;;;;;;;;;;9.60;72.60;;;;;;5001563;28;80268;-44
2024/02/23 09:12:02;;;;;;;;;;;9.60;72.50;;;;;;5005280;28;80176;-43
2024/02/23 09:14:29;;;;;;;;;;;9.60;72.40;;;;;;5003091;28;80649;-43
2024/02/23 09:16:55;;;;;;;;;;;9.60;72.40;;;;;;5002352;28;81520;-43
2024/02/23 09:19:20;;;;;;;;;;;9.60;72.30;;;;;;4999557;28;80938;-44
2024/02/23 09:21:46;;;;;;;;;;;9.60;72.20;;;;;;5003559;28;81347;-43
2024/02/23 09:24:12;;;;;;;;;;;9.60;72.20;;;;;;4995841;28;80221;-43
2024/02/23 09:26:39;;;;;;;;;;;9.60;72.00;;;;;;5001620;28;81842;-43
2024/02/23 09:29:04;;;;;;;;;;;9.60;71.90;;;;;;4997390;28;80260;-44
2024/02/23 09:31:31;;;;;;;;;;;9.60;71.80;;;;;;4999619;28;80232;-44
2024/02/23 09:33:57;;;;;;;;;;;9.60;71.80;;;;;;4999399;28;81725;-44
2024/02/23 09:36:22;;;;;;;;;;;9.60;71.80;;;;;;5006698;28;80333;-44
2024/02/23 09:38:50;;;;;;;;;;;9.60;71.80;;;;;;4996786;28;81650;-44
2024/02/23 09:41:19;;;;;;;;;;;9.60;71.80;;;;;;4999666;28;81086;-44
2024/02/23 09:43:46;;;;;;;;;;;9.60;71.70;;;;;;4999819;28;80239;-44
2024/02/23 09:46:14;;;;;;;;;;;9.60;71.70;;;;;;5004410;28;81754;-44
2024/02/23 09:48:39;;;;;;;;;;;9.60;71.60;;;;;;5001944;28;80330;-44
2024/02/23 09:51:05;;;;;;;;;;;9.60;71.60;;;;;;5000190;28;81724;-44
2024/02/23 09:53:31;;;;;;;;;;;9.50;72.10;;;;;;4996362;28;80630;-44
2024/02/23 09:55:59;;;;;;;;;;;9.60;71.50;;;;;;4996545;28;82104;-44
2024/02/23 09:58:26;;;;;;;;;;;9.50;71.40;;;;;;5003012;28;81479;-43
2024/02/23 10:00:52;;;;;;;;;;;9.50;71.40;;;;;;5001223;28;80393;-44
2024/02/23 10:03:18;;;;;;;;;;;9.60;71.40;;;;;;4999706;28;80053;-44
2024/02/23 10:05:45;;;;;;;;;;;9.50;71.40;;;;;;4996348;28;80672;-44
2024/02/23 10:08:12;;;;;;;;;;;9.60;71.30;;;;;;4998182;28;80218;-44
2024/02/23 10:10:38;;;;;;;;;;;9.60;71.30;;;;;;5007018;28;81293;-44
2024/02/23 10:13:06;;;;;;;;;;;9.50;71.20;;;;;;4998762;28;80662;-44
2024/02/23 10:15:32;;;;;;;;;;;9.60;71.20;;;;;;4999336;28;80334;-44
2024/02/23 10:17:57;;;;;;;;;;;9.50;71.20;;;;;;4996813;28;80303;-44
2024/02/23 10:20:23;;;;;;;;;;;9.60;71.20;;;;;;5005750;28;80638;-44
2024/02/23 10:22:49;;;;;;;;;;;9.50;71.10;;;;;;4995824;28;80560;-44
2024/02/23 10:25:15;;;;;;;;;;;9.50;71.10;;;;;;5001549;28;81544;-44
2024/02/23 10:27:41;;;;;;;;;;;9.50;71.10;;;;;;5001016;28;80219;-44
2024/02/23 10:30:10;;;;;;;;;;;9.50;71.00;;;;;;5000120;28;81000;-44
2024/02/23 10:32:37;;;;;;;;;;;9.50;71.00;;;;;;5002603;28;82332;-44
2024/02/23 10:35:04;;;;;;;;;;;9.50;71.00;;;;;;5003179;28;80787;-44
2024/02/23 10:37:29;;;;;;;;;;;9.50;71.00;;;;;;5001612;28;81201;-44
2024/02/23 10:39:58;;;;;;;;;;;9.50;71.00;;;;;;4999671;28;80668;-44
2024/02/23 10:42:24;;;;;;;;;;;9.50;70.90;;;;;;5002472;28;80369;-44
2024/02/23 10:44:55;;;;;;;;;;;9.50;70.90;;;;;;5001931;28;81554;-44
2024/02/23 10:47:21;;;;;;;;;;;9.50;70.90;;;;;;5002302;28;80612;-43
2024/02/23 10:51:49;;;;;;;;;;;9.50;70.40;;;;;;5038635;27;80118;-37
2024/02/23 10:54:17;;;;;;;;;;;9.50;70.90;;;;;;5021190;28;80408;-37
2024/02/23 10:56:43;;;;;;;;;;;9.50;70.90;;;;;;5021481;28;80913;-38
2024/02/23 10:59:08;;;;;;;;;;;9.50;71.50;;;;;;5024552;28;81550;-38
2024/02/23 11:01:35;;;;;;;;;;;9.50;70.90;;;;;;5017414;28;80234;-38
2024/02/23 11:04:01;;;;;;;;;;;9.50;70.90;;;;;;5020376;28;80098;-37
2024/02/23 11:06:27;;;;;;;;;;;9.50;70.90;;;;;;5016214;28;80719;-38
2024/02/23 11:08:53;;;;;;;;;;;9.40;70.80;;;;;;5017409;28;81901;-38
2024/02/23 11:11:19;;;;;;;;;;;9.50;70.80;;;;;;5020139;28;81193;-37
2024/02/23 11:13:45;;;;;;;;;;;9.40;71.00;;;;;;5016940;28;80293;-37
2024/02/23 11:16:11;;;;;;;;;;;9.40;70.80;;;;;;5019907;28;80742;-38
2024/02/23 11:18:38;;;;;;;;;;;9.40;70.80;;;;;;5019456;28;81282;-37
2024/02/23 11:21:05;;;;;;;;;;;9.40;70.70;;;;;;5016124;28;80351;-38
2024/02/23 11:23:59;;;;;;;;;;;9.50;70.70;;;;;;5019561;28;80174;-38
2024/02/23 11:26:27;;;;;;;;;;;9.50;70.60;;;;;;5017421;28;80598;-38
2024/02/23 11:28:55;;;;;;;;;;;9.50;70.50;;;;;;5016033;28;80197;-37
2024/02/23 11:31:22;;;;;;;;;;;9.50;70.50;;;;;;5017135;28;80150;-38
2024/02/23 11:33:53;;;;;;;;;;;9.50;70.50;;;;;;5022912;28;81791;-38
2024/02/23 11:36:34;;;;;;;;;;;9.50;70.40;;;;;;5020426;28;82137;-38
2024/02/23 11:39:00;;;;;;;;;;;9.60;70.30;;;;;;5021072;28;81854;-38
2024/02/23 11:41:27;;;;;;;;;;;9.60;70.30;;;;;;5014098;28;80202;-38
2024/02/23 11:43:53;;;;;;;;;;;9.60;70.30;;;;;;5022049;28;80419;-38
2024/02/23 11:46:19;;;;;;;;;;;9.60;70.30;;;;;;5026093;28;81609;-38
2024/02/23 11:48:46;;;;;;;;;;;9.60;70.30;;;;;;5018988;28;80407;-38
2024/02/23 11:51:15;;;;;;;;;;;9.60;70.30;;;;;;5012040;28;81140;-38
2024/02/23 11:53:41;;;;;;;;;;;9.60;70.30;;;;;;5023651;28;80689;-38
2024/02/23 11:56:07;;;;;;;;;;;9.60;70.30;;;;;;5024448;28;80278;-38
2024/02/23 11:58:33;;;;;;;;;;;9.70;70.20;;;;;;5015809;28;81799;-38
2024/02/23 12:01:02;;;;;;;;;;;9.70;70.20;;;;;;5017549;28;80271;-38
2024/02/23 12:03:31;;;;;;;;;;;9.70;70.00;;;;;;5001484;28;81044;-38
2024/02/23 12:05:57;;;;;;;;;;;9.80;70.00;;;;;;5004720;28;80588;-38
2024/02/23 12:08:25;;;;;;;;;;;9.80;69.90;;;;;;5002223;28;80218;-38
2024/02/23 12:10:52;;;;;;;;;;;9.70;69.90;;;;;;4999884;28;81599;-38
2024/02/23 12:13:17;;;;;;;;;;;9.70;69.90;;;;;;5008563;28;80441;-38
2024/02/23 12:15:43;;;;;;;;;;;9.70;70.00;;;;;;5003492;28;81354;-37
2024/02/23 12:18:10;;;;;;;;;;;9.70;70.00;;;;;;5006161;28;80279;-38
2024/02/23 12:20:36;;;;;;;;;;;9.80;70.00;;;;;;5007003;28;80241;-38
2024/02/23 12:23:01;;;;;;;;;;;9.80;70.00;;;;;;5010152;28;80274;-37
2024/02/23 12:25:27;;;;;;;;;;;9.80;70.00;;;;;;5003442;28;80742;-38
2024/02/23 12:27:56;;;;;;;;;;;9.80;70.00;;;;;;5008493;28;80245;-38
2024/02/23 12:30:22;;;;;;;;;;;9.80;69.90;;;;;;5004371;28;81346;-38
2024/02/23 12:32:48;;;;;;;;;;;9.80;69.80;;;;;;5008050;28;80906;-38
2024/02/23 12:35:14;;;;;;;;;;;9.90;69.80;;;;;;5004209;28;80357;-37
2024/02/23 12:37:41;;;;;;;;;;;9.90;69.80;;;;;;5002356;28;80237;-38
2024/02/23 12:40:07;;;;;;;;;;;9.90;69.70;;;;;;5010137;28;80172;-38
2024/02/23 12:42:33;;;;;;;;;;;9.90;69.60;;;;;;5004467;28;81126;-38
2024/02/23 12:44:58;;;;;;;;;;;10.00;69.70;;;;;;5004866;28;80640;-38
2024/02/23 12:47:24;;;;;;;;;;;10.00;69.70;;;;;;5006346;28;80060;-38
2024/02/23 12:49:49;;;;;;;;;;;10.00;69.60;;;;;;5006767;28;80237;-38
2024/02/23 12:52:15;;;;;;;;;;;10.00;69.60;;;;;;4999518;28;80314;-38
2024/02/23 12:54:41;;;;;;;;;;;10.00;69.60;;;;;;4999995;28;80258;-38
2024/02/23 12:57:07;;;;;;;;;;;10.00;69.70;;;;;;5006264;28;81389;-38
2024/02/23 12:59:32;;;;;;;;;;;10.00;69.70;;;;;;5007424;28;80704;-38
2024/02/23 13:01:58;;;;;;;;;;;10.00;69.70;;;;;;5003697;28;80229;-38
2024/02/23 13:04:24;;;;;;;;;;;10.10;69.70;;;;;;5003996;28;80659;-38
2024/02/23 13:06:49;;;;;;;;;;;10.00;69.60;;;;;;5005363;28;80219;-38
2024/02/23 13:09:15;;;;;;;;;;;10.10;69.70;;;;;;5004653;28;81230;-38
2024/02/23 13:11:40;;;;;;;;;;;10.10;70.30;;;;;;5002358;28;80492;-38
2024/02/23 13:14:06;;;;;;;;;;;10.10;69.60;;;;;;5000672;28;80315;-38
2024/02/23 13:16:31;;;;;;;;;;;10.10;69.50;;;;;;5004511;28;81010;-38
2024/02/23 13:18:57;;;;;;;;;;;10.20;69.60;;;;;;5007189;28;80707;-38
2024/02/23 13:21:24;;;;;;;;;;;10.10;69.60;;;;;;5005397;28;80241;-38
2024/02/23 13:23:49;;;;;;;;;;;10.20;69.60;;;;;;5005254;28;81600;-38
2024/02/23 13:26:15;;;;;;;;;;;10.20;69.60;;;;;;5005338;28;80264;-38
2024/02/23 13:28:44;;;;;;;;;;;10.20;69.50;;;;;;5005766;28;81259;-38
2024/02/23 13:31:10;;;;;;;;;;;10.30;69.50;;;;;;5002649;28;81007;-38
2024/02/23 13:33:35;;;;;;;;;;;10.20;69.40;;;;;;4993492;28;80303;-38
2024/02/23 13:36:01;;;;;;;;;;;10.20;69.40;;;;;;5003536;28;80211;-37
2024/02/23 13:38:26;;;;;;;;;;;10.30;69.40;;;;;;5003353;28;82024;-38
2024/02/23 13:40:52;;;;;;;;;;;10.30;69.40;;;;;;5001630;28;80257;-38
2024/02/23 13:43:17;;;;;;;;;;;10.30;69.40;;;;;;5004448;28;80142;-38
2024/02/23 13:45:51;;;;;;;;;;;10.30;69.40;;;;;;5002743;28;80163;-38
2024/02/23 13:48:18;;;;;;;;;;;10.30;69.50;;;;;;5000736;28;80232;-38
2024/02/23 13:50:44;;;;;;;;;;;10.30;69.50;;;;;;5004919;28;81869;-38
2024/02/23 13:53:11;;;;;;;;;;;10.30;69.50;;;;;;5001641;28;80196;-38
2024/02/23 13:55:36;;;;;;;;;;;10.30;69.50;;;;;;5007806;28;81291;-38
2024/02/23 13:58:02;;;;;;;;;;;10.30;69.50;;;;;;5002765;28;80730;-38
2024/02/23 14:00:27;;;;;;;;;;;10.30;69.60;;;;;;5003150;28;80196;-38
2024/02/23 14:02:53;;;;;;;;;;;10.30;69.50;;;;;;5004229;28;81062;-38
2024/02/23 14:05:21;;;;;;;;;;;10.30;69.60;;;;;;5007983;28;81620;-38
2024/02/23 14:07:47;;;;;;;;;;;10.30;69.60;;;;;;5004884;28;81290;-38
2024/02/23 14:10:13;;;;;;;;;;;10.40;69.60;;;;;;5004044;28;80970;-38
2024/02/23 14:12:39;;;;;;;;;;;10.30;69.60;;;;;;5001942;28;80556;-38
2024/02/23 14:15:05;;;;;;;;;;;10.30;69.60;;;;;;4999861;28;80207;-37
2024/02/23 14:17:30;;;;;;;;;;;10.30;69.60;;;;;;5002558;28;80069;-38
2024/02/23 14:19:56;;;;;;;;;;;10.30;69.60;;;;;;5007622;28;80197;-38
2024/02/23 14:22:22;;;;;;;;;;;10.30;69.60;;;;;;5008802;28;80318;-38
2024/02/23 14:24:47;;;;;;;;;;;10.30;69.70;;;;;;5000973;28;80594;-38